Terminal Aerodrome Forecast
Issued by NWS Cleveland, OH

Home | Current Version | Previous Version | Graphics & Text | Print | Product List | Glossary On
Versions: 1 2 3 4 5 6 7 8 9 10 11 12 13 14 15 16 17 18
017
FTUS41 KCLE 232320
TAFTOL
TAF
KTOL 232320Z 2400/2424 09006KT P6SM BKN200
     FM241000 06006KT P6SM BKN080
     FM241600 09008KT P6SM OVC035
     FM241700 09009KT P6SM -SHRA OVC035
     FM241800 09009KT P6SM -SHRA OVC030
     FM242100 08010KT 4SM -SHRA OVC015=

USA.gov is the U.S. government's official web portal to all federal, state and local government web resources and services.